UZB17 UZTT-UZNN
Flight info
| Callsign | UZB17 |
|---|---|
| Flight time | N/A |
| Altitude | 36000 |
| Route | DIBAD2A DIBAD N193 LAPZE Y114 BALSO BALSO3X |
| Aircraft | A320/M-SDE3FGHIRWY/LB1 |
Departure
| Time | 2026-04-19 09:10 |
|---|---|
| Airport | Tashkent International Airport (UZTT) |
Arrival
| Time | N/A |
|---|---|
| Airport | UZNN |
| Time | Latitude | Longitude | Altitude | Speed | Heading |
|---|---|---|---|---|---|
| 2026-04-19 08:59 | 41.25158 | 69.26343 | 1381 ft | 0 kts | 180° |
| 2026-04-19 09:00 | 41.25166 | 69.26343 | 1379 ft | 3 kts | 180° |
| 2026-04-19 09:00 | 41.25187 | 69.26343 | 1379 ft | 3 kts | 199° |
| 2026-04-19 09:01 | 41.25202 | 69.26360 | 1381 ft | 3 kts | 265° |
| 2026-04-19 09:01 | 41.25202 | 69.26367 | 1379 ft | 0 kts | 269° |
| 2026-04-19 09:06 | 41.25202 | 69.26362 | 1379 ft | 1 kts | 269° |
| 2026-04-19 09:06 | 41.25202 | 69.26343 | 1377 ft | 3 kts | 270° |
| 2026-04-19 09:07 | 41.25202 | 69.26314 | 1377 ft | 4 kts | 269° |
| 2026-04-19 09:07 | 41.25202 | 69.26275 | 1378 ft | 5 kts | 271° |
| 2026-04-19 09:07 | 41.25227 | 69.26247 | 1377 ft | 6 kts | 355° |
| 2026-04-19 09:07 | 41.25266 | 69.26218 | 1381 ft | 7 kts | 300° |
| 2026-04-19 09:08 | 41.25280 | 69.26170 | 1379 ft | 0 kts | 291° |
| 2026-04-19 09:08 | 41.25291 | 69.26129 | 1377 ft | 10 kts | 291° |
| 2026-04-19 09:09 | 41.25342 | 69.26039 | 1379 ft | 14 kts | 337° |
| 2026-04-19 09:09 | 41.25424 | 69.26091 | 1378 ft | 11 kts | 59° |
| 2026-04-19 09:09 | 41.25443 | 69.26185 | 1380 ft | 10 kts | 81° |
| 2026-04-19 09:09 | 41.25454 | 69.26289 | 1380 ft | 23 kts | 81° |
| 2026-04-19 09:10 | 41.25515 | 69.26841 | 1382 ft | 94 kts | 82° |
| 2026-04-19 09:10 | 41.25638 | 69.27963 | 1381 ft | 149 kts | 82° |
| 2026-04-19 09:10 | 41.25845 | 69.29509 | 1515 ft | 180 kts | 76° |
| 2026-04-19 09:10 | 41.26039 | 69.31111 | 2274 ft | 175 kts | 81° |
| 2026-04-19 09:11 | 41.26212 | 69.32728 | 2834 ft | 181 kts | 81° |
| 2026-04-19 09:11 | 41.26394 | 69.34480 | 3073 ft | 203 kts | 82° |
| 2026-04-19 09:11 | 41.26396 | 69.36449 | 3322 ft | 227 kts | 106° |
| 2026-04-19 09:11 | 41.25540 | 69.38245 | 3601 ft | 247 kts | 144° |
| 2026-04-19 09:12 | 41.23877 | 69.39048 | 4081 ft | 262 kts | 182° |
| 2026-04-19 09:12 | 41.22178 | 69.38365 | 4844 ft | 263 kts | 216° |
| 2026-04-19 09:12 | 41.20806 | 69.36734 | 5671 ft | 268 kts | 230° |
| 2026-04-19 09:12 | 41.19874 | 69.34602 | 6504 ft | 270 kts | 252° |
| 2026-04-19 09:13 | 41.19676 | 69.32136 | 7379 ft | 271 kts | 273° |
| 2026-04-19 09:13 | 41.19835 | 69.29636 | 8281 ft | 272 kts | 273° |
| 2026-04-19 09:13 | 41.20010 | 69.27140 | 9191 ft | 272 kts | 273° |
| 2026-04-19 09:13 | 41.20131 | 69.25453 | 9803 ft | 272 kts | 272° |
| 2026-04-19 09:14 | 41.20309 | 69.22931 | 10462 ft | 281 kts | 272° |
| 2026-04-19 09:14 | 41.20491 | 69.20240 | 10667 ft | 304 kts | 272° |
| 2026-04-19 09:14 | 41.20684 | 69.17339 | 10908 ft | 325 kts | 272° |
| 2026-04-19 09:14 | 41.20886 | 69.14310 | 11481 ft | 332 kts | 272° |
| 2026-04-19 09:15 | 41.21094 | 69.11234 | 12160 ft | 337 kts | 272° |
| 2026-04-19 09:15 | 41.21306 | 69.08119 | 12858 ft | 340 kts | 272° |
| 2026-04-19 09:15 | 41.21726 | 69.01790 | 14188 ft | 348 kts | 272° |
| 2026-04-19 09:16 | 41.21936 | 68.98576 | 14800 ft | 351 kts | 272° |
| 2026-04-19 09:16 | 41.22146 | 68.95340 | 15411 ft | 354 kts | 272° |
| 2026-04-19 09:16 | 41.22357 | 68.92073 | 16023 ft | 356 kts | 272° |
| 2026-04-19 09:16 | 41.22568 | 68.88825 | 16622 ft | 359 kts | 272° |
| 2026-04-19 09:17 | 41.22782 | 68.85512 | 17225 ft | 362 kts | 272° |
| 2026-04-19 09:17 | 41.22996 | 68.82166 | 17803 ft | 365 kts | 273° |
| 2026-04-19 09:17 | 41.23210 | 68.78787 | 18396 ft | 368 kts | 273° |
| 2026-04-19 09:17 | 41.23425 | 68.75386 | 18924 ft | 371 kts | 273° |
| 2026-04-19 09:18 | 41.23643 | 68.71963 | 19465 ft | 373 kts | 273° |
| 2026-04-19 09:18 | 41.23861 | 68.68518 | 20010 ft | 376 kts | 273° |
| 2026-04-19 09:18 | 41.24080 | 68.65046 | 20539 ft | 378 kts | 273° |
| 2026-04-19 09:18 | 41.24299 | 68.61554 | 21053 ft | 380 kts | 273° |
| 2026-04-19 09:19 | 41.24518 | 68.58045 | 21559 ft | 383 kts | 273° |
| 2026-04-19 09:19 | 41.24736 | 68.54505 | 22051 ft | 385 kts | 273° |
| 2026-04-19 09:19 | 41.24954 | 68.50949 | 22535 ft | 388 kts | 274° |
| 2026-04-19 09:19 | 41.25173 | 68.47366 | 23014 ft | 390 kts | 274° |
| 2026-04-19 09:20 | 41.25393 | 68.43772 | 23479 ft | 392 kts | 274° |
| 2026-04-19 09:20 | 41.25614 | 68.40151 | 23875 ft | 394 kts | 274° |
| 2026-04-19 09:20 | 41.25833 | 68.36517 | 24243 ft | 396 kts | 274° |
| 2026-04-19 09:20 | 41.26051 | 68.32862 | 24627 ft | 397 kts | 274° |
| 2026-04-19 09:21 | 41.26267 | 68.29197 | 24995 ft | 398 kts | 274° |
| 2026-04-19 09:21 | 41.26484 | 68.25526 | 25361 ft | 400 kts | 275° |
| 2026-04-19 09:21 | 41.26702 | 68.21838 | 25719 ft | 401 kts | 275° |
| 2026-04-19 09:21 | 41.26919 | 68.18139 | 26072 ft | 402 kts | 275° |
| 2026-04-19 09:22 | 41.27132 | 68.14440 | 26475 ft | 401 kts | 276° |
| 2026-04-19 09:22 | 41.27345 | 68.10738 | 26851 ft | 402 kts | 276° |
| 2026-04-19 09:22 | 41.27558 | 68.07029 | 27195 ft | 403 kts | 276° |
| 2026-04-19 09:22 | 41.27770 | 68.03312 | 27528 ft | 404 kts | 276° |
| 2026-04-19 09:23 | 41.27982 | 67.99585 | 27848 ft | 406 kts | 276° |
| 2026-04-19 09:23 | 41.28192 | 67.95838 | 28125 ft | 407 kts | 276° |
| 2026-04-19 09:23 | 41.28521 | 67.92098 | 28406 ft | 407 kts | 282° |
| 2026-04-19 09:23 | 41.29094 | 67.88401 | 28689 ft | 408 kts | 283° |
| 2026-04-19 09:24 | 41.29676 | 67.84704 | 28972 ft | 409 kts | 283° |
| 2026-04-19 09:24 | 41.30263 | 67.80992 | 29243 ft | 410 kts | 283° |
| 2026-04-19 09:24 | 41.30848 | 67.77275 | 29502 ft | 411 kts | 283° |
| 2026-04-19 09:24 | 41.31428 | 67.73550 | 29821 ft | 411 kts | 283° |
| 2026-04-19 09:25 | 41.32002 | 67.69841 | 30181 ft | 409 kts | 283° |
| 2026-04-19 09:25 | 41.32572 | 67.66142 | 30472 ft | 407 kts | 283° |
| 2026-04-19 09:25 | 41.33138 | 67.62453 | 30751 ft | 407 kts | 283° |
| 2026-04-19 09:25 | 41.33695 | 67.58815 | 31014 ft | 406 kts | 283° |
| 2026-04-19 09:26 | 41.34259 | 67.55135 | 31285 ft | 406 kts | 283° |
| 2026-04-19 09:26 | 41.34820 | 67.51464 | 31593 ft | 403 kts | 284° |
| 2026-04-19 09:26 | 41.35373 | 67.47826 | 31956 ft | 400 kts | 284° |
| 2026-04-19 09:26 | 41.35922 | 67.44207 | 32260 ft | 399 kts | 284° |
| 2026-04-19 09:27 | 41.36472 | 67.40588 | 32506 ft | 400 kts | 284° |
| 2026-04-19 09:27 | 41.37025 | 67.36959 | 32718 ft | 400 kts | 284° |
| 2026-04-19 09:27 | 41.37577 | 67.33326 | 32974 ft | 400 kts | 283° |
| 2026-04-19 09:27 | 41.38125 | 67.29693 | 33239 ft | 400 kts | 283° |
| 2026-04-19 09:28 | 41.38671 | 67.26058 | 33499 ft | 400 kts | 283° |
| 2026-04-19 09:28 | 41.39216 | 67.22430 | 33768 ft | 400 kts | 283° |
| 2026-04-19 09:28 | 41.39761 | 67.18811 | 34047 ft | 397 kts | 284° |
| 2026-04-19 09:28 | 41.40301 | 67.15210 | 34318 ft | 395 kts | 284° |
| 2026-04-19 09:29 | 41.40836 | 67.11619 | 34549 ft | 395 kts | 284° |
| 2026-04-19 09:29 | 41.41370 | 67.08031 | 34763 ft | 395 kts | 284° |
| 2026-04-19 09:29 | 41.41905 | 67.04437 | 34946 ft | 396 kts | 284° |
| 2026-04-19 09:29 | 41.42440 | 67.00844 | 35134 ft | 396 kts | 283° |
| 2026-04-19 09:30 | 41.42973 | 66.97241 | 35311 ft | 396 kts | 283° |
| 2026-04-19 09:30 | 41.43503 | 66.93637 | 35498 ft | 397 kts | 283° |
| 2026-04-19 09:30 | 41.44032 | 66.90025 | 35665 ft | 397 kts | 283° |
| 2026-04-19 09:30 | 41.44558 | 66.86413 | 35840 ft | 397 kts | 283° |
| 2026-04-19 09:31 | 41.45081 | 66.82801 | 36005 ft | 397 kts | 283° |
| 2026-04-19 09:31 | 41.46146 | 66.75542 | 36068 ft | 400 kts | 284° |
| 2026-04-19 09:32 | 41.47213 | 66.68258 | 36065 ft | 400 kts | 283° |
| 2026-04-19 09:32 | 41.48269 | 66.60971 | 36070 ft | 400 kts | 283° |
| 2026-04-19 09:33 | 41.49338 | 66.53692 | 36067 ft | 399 kts | 284° |
| 2026-04-19 09:33 | 41.50412 | 66.46453 | 36079 ft | 398 kts | 284° |
| 2026-04-19 09:34 | 41.51479 | 66.39215 | 36072 ft | 398 kts | 284° |
| 2026-04-19 09:34 | 41.52532 | 66.31969 | 36093 ft | 398 kts | 284° |
| 2026-04-19 09:35 | 41.53585 | 66.24709 | 36041 ft | 399 kts | 284° |
| 2026-04-19 09:35 | 41.54636 | 66.17452 | 36067 ft | 398 kts | 284° |
| 2026-04-19 09:36 | 41.55678 | 66.10204 | 36079 ft | 397 kts | 284° |
| 2026-04-19 09:36 | 41.56712 | 66.03016 | 36082 ft | 397 kts | 284° |
| 2026-04-19 09:37 | 41.57754 | 65.95779 | 36083 ft | 397 kts | 284° |
| 2026-04-19 09:37 | 41.58772 | 65.88543 | 36072 ft | 396 kts | 284° |
| 2026-04-19 09:38 | 41.59785 | 65.81325 | 36076 ft | 395 kts | 284° |
| 2026-04-19 09:38 | 41.60808 | 65.74116 | 36095 ft | 395 kts | 284° |
| 2026-04-19 09:39 | 41.61825 | 65.66904 | 36083 ft | 395 kts | 284° |
| 2026-04-19 09:39 | 41.62824 | 65.59687 | 36048 ft | 395 kts | 285° |
| 2026-04-19 09:40 | 41.63816 | 65.52486 | 36075 ft | 394 kts | 285° |
| 2026-04-19 09:40 | 41.64803 | 65.45296 | 36076 ft | 393 kts | 284° |
| 2026-04-19 09:41 | 41.65786 | 65.38115 | 36075 ft | 392 kts | 285° |
| 2026-04-19 09:41 | 41.66767 | 65.30942 | 36077 ft | 392 kts | 284° |
| 2026-04-19 09:42 | 41.67737 | 65.23772 | 36078 ft | 391 kts | 285° |
| 2026-04-19 09:42 | 41.68700 | 65.16608 | 36076 ft | 391 kts | 285° |
| 2026-04-19 09:43 | 41.69665 | 65.09453 | 36072 ft | 391 kts | 285° |
| 2026-04-19 09:43 | 41.70622 | 65.02347 | 36070 ft | 391 kts | 285° |
| 2026-04-19 09:44 | 41.71573 | 64.95192 | 36036 ft | 390 kts | 284° |
| 2026-04-19 09:44 | 41.72520 | 64.88044 | 36054 ft | 390 kts | 284° |
| 2026-04-19 09:45 | 41.73466 | 64.80908 | 36058 ft | 389 kts | 284° |
| 2026-04-19 09:45 | 41.74402 | 64.73773 | 36097 ft | 389 kts | 284° |
| 2026-04-19 09:46 | 41.75326 | 64.66633 | 36080 ft | 389 kts | 284° |
| 2026-04-19 09:46 | 41.76270 | 64.59490 | 36066 ft | 389 kts | 286° |
| 2026-04-19 09:47 | 41.77438 | 64.52440 | 36063 ft | 387 kts | 288° |
| 2026-04-19 09:47 | 41.78697 | 64.45420 | 36058 ft | 387 kts | 288° |
| 2026-04-19 09:48 | 41.79913 | 64.38385 | 36058 ft | 388 kts | 287° |
| 2026-04-19 09:48 | 41.81088 | 64.31333 | 36027 ft | 387 kts | 286° |
| 2026-04-19 09:49 | 41.82250 | 64.24289 | 36064 ft | 387 kts | 287° |
| 2026-04-19 09:49 | 41.83405 | 64.17290 | 36056 ft | 387 kts | 287° |
| 2026-04-19 09:50 | 41.84570 | 64.10251 | 36048 ft | 387 kts | 287° |
| 2026-04-19 09:50 | 41.85731 | 64.03212 | 36003 ft | 386 kts | 286° |
| 2026-04-19 09:51 | 41.86884 | 63.96179 | 36016 ft | 386 kts | 286° |
| 2026-04-19 09:51 | 41.88032 | 63.89148 | 36030 ft | 386 kts | 286° |
| 2026-04-19 09:52 | 41.89171 | 63.82111 | 36031 ft | 386 kts | 286° |
| 2026-04-19 09:52 | 41.90304 | 63.75072 | 36037 ft | 386 kts | 285° |
| 2026-04-19 09:53 | 41.91437 | 63.68024 | 35997 ft | 386 kts | 285° |
| 2026-04-19 09:53 | 41.92575 | 63.60970 | 36008 ft | 387 kts | 285° |
| 2026-04-19 09:54 | 41.93707 | 63.53903 | 36015 ft | 387 kts | 285° |
| 2026-04-19 09:54 | 41.94834 | 63.46837 | 36014 ft | 387 kts | 285° |
| 2026-04-19 09:55 | 41.95948 | 63.39820 | 36019 ft | 387 kts | 285° |
| 2026-04-19 09:55 | 41.97054 | 63.32746 | 36021 ft | 387 kts | 285° |
| 2026-04-19 09:56 | 41.98161 | 63.25670 | 36000 ft | 387 kts | 284° |
| 2026-04-19 09:56 | 41.99267 | 63.18593 | 36003 ft | 387 kts | 284° |
| 2026-04-19 09:57 | 42.00366 | 63.11506 | 35999 ft | 387 kts | 284° |
| 2026-04-19 09:57 | 42.01471 | 63.04422 | 36003 ft | 387 kts | 284° |
| 2026-04-19 09:58 | 42.02576 | 62.97330 | 36008 ft | 388 kts | 284° |
| 2026-04-19 09:58 | 42.03681 | 62.90229 | 36014 ft | 388 kts | 284° |
| 2026-04-19 09:59 | 42.04798 | 62.83132 | 36014 ft | 388 kts | 284° |
| 2026-04-19 09:59 | 42.05914 | 62.76022 | 35994 ft | 388 kts | 284° |
| 2026-04-19 10:00 | 42.07023 | 62.68910 | 35996 ft | 388 kts | 284° |
| 2026-04-19 10:00 | 42.08131 | 62.61793 | 35990 ft | 389 kts | 284° |
| 2026-04-19 10:01 | 42.09203 | 62.54701 | 35999 ft | 389 kts | 283° |
| 2026-04-19 10:01 | 42.10259 | 62.47547 | 36011 ft | 390 kts | 283° |
| 2026-04-19 10:02 | 42.11313 | 62.40391 | 36009 ft | 390 kts | 283° |
| 2026-04-19 10:02 | 42.12373 | 62.33228 | 35990 ft | 390 kts | 283° |
| 2026-04-19 10:03 | 42.13433 | 62.26046 | 35980 ft | 392 kts | 283° |
| 2026-04-19 10:03 | 42.13783 | 62.23656 | 35831 ft | 393 kts | 283° |
| 2026-04-19 10:03 | 42.14311 | 62.20049 | 35578 ft | 393 kts | 283° |
| 2026-04-19 10:03 | 42.14842 | 62.16429 | 35331 ft | 394 kts | 283° |
| 2026-04-19 10:04 | 42.15370 | 62.12801 | 35084 ft | 395 kts | 283° |
| 2026-04-19 10:04 | 42.15899 | 62.09163 | 34842 ft | 396 kts | 283° |
| 2026-04-19 10:04 | 42.16431 | 62.05517 | 34589 ft | 397 kts | 283° |
| 2026-04-19 10:04 | 42.16964 | 62.01862 | 34357 ft | 398 kts | 283° |
| 2026-04-19 10:05 | 42.17497 | 61.98196 | 34049 ft | 399 kts | 283° |
| 2026-04-19 10:05 | 42.18032 | 61.94511 | 33134 ft | 402 kts | 283° |
| 2026-04-19 10:05 | 42.18565 | 61.90813 | 32278 ft | 402 kts | 283° |
| 2026-04-19 10:05 | 42.19099 | 61.87099 | 31379 ft | 404 kts | 283° |
| 2026-04-19 10:06 | 42.19632 | 61.83378 | 30568 ft | 405 kts | 282° |
| 2026-04-19 10:06 | 42.20170 | 61.79630 | 29504 ft | 410 kts | 282° |
| 2026-04-19 10:06 | 42.20706 | 61.75885 | 28975 ft | 402 kts | 282° |
| 2026-04-19 10:06 | 42.21228 | 61.72214 | 28380 ft | 396 kts | 282° |
| 2026-04-19 10:07 | 42.21735 | 61.68637 | 27801 ft | 391 kts | 282° |
| 2026-04-19 10:07 | 42.22238 | 61.65053 | 27217 ft | 387 kts | 282° |
| 2026-04-19 10:07 | 42.22735 | 61.61504 | 26644 ft | 383 kts | 282° |
| 2026-04-19 10:07 | 42.23228 | 61.57985 | 26085 ft | 380 kts | 282° |
| 2026-04-19 10:08 | 42.23716 | 61.54497 | 25531 ft | 377 kts | 283° |
| 2026-04-19 10:08 | 42.24203 | 61.51033 | 24985 ft | 374 kts | 283° |
| 2026-04-19 10:08 | 42.24688 | 61.47596 | 24435 ft | 372 kts | 283° |
| 2026-04-19 10:08 | 42.25169 | 61.44168 | 23894 ft | 371 kts | 283° |
| 2026-04-19 10:09 | 42.25646 | 61.40755 | 23310 ft | 370 kts | 282° |
| 2026-04-19 10:09 | 42.26118 | 61.37356 | 22769 ft | 367 kts | 282° |
| 2026-04-19 10:09 | 42.26585 | 61.33980 | 22284 ft | 365 kts | 282° |
| 2026-04-19 10:09 | 42.27048 | 61.30621 | 21793 ft | 363 kts | 282° |
| 2026-04-19 10:10 | 42.27510 | 61.27284 | 21327 ft | 361 kts | 282° |
| 2026-04-19 10:10 | 42.27971 | 61.23959 | 20878 ft | 359 kts | 282° |
| 2026-04-19 10:10 | 42.28430 | 61.20647 | 20445 ft | 358 kts | 282° |
| 2026-04-19 10:10 | 42.28883 | 61.17345 | 20010 ft | 357 kts | 282° |
| 2026-04-19 10:11 | 42.29333 | 61.14053 | 19585 ft | 356 kts | 282° |
| 2026-04-19 10:11 | 42.29780 | 61.10772 | 19166 ft | 355 kts | 282° |
| 2026-04-19 10:11 | 42.30225 | 61.07500 | 18744 ft | 354 kts | 282° |
| 2026-04-19 10:11 | 42.30667 | 61.04237 | 18294 ft | 353 kts | 282° |
| 2026-04-19 10:12 | 42.31106 | 61.00986 | 17819 ft | 351 kts | 282° |
| 2026-04-19 10:12 | 42.31541 | 60.97742 | 17365 ft | 350 kts | 281° |
| 2026-04-19 10:12 | 42.31975 | 60.94515 | 16910 ft | 349 kts | 281° |
| 2026-04-19 10:12 | 42.32410 | 60.91298 | 16442 ft | 347 kts | 281° |
| 2026-04-19 10:13 | 42.32841 | 60.88095 | 15985 ft | 345 kts | 281° |
| 2026-04-19 10:13 | 42.33271 | 60.84907 | 15505 ft | 344 kts | 281° |
| 2026-04-19 10:13 | 42.33697 | 60.81734 | 15040 ft | 343 kts | 280° |
| 2026-04-19 10:13 | 42.34120 | 60.78564 | 14572 ft | 342 kts | 280° |
| 2026-04-19 10:14 | 42.34542 | 60.75396 | 14095 ft | 342 kts | 279° |
| 2026-04-19 10:14 | 42.34963 | 60.72233 | 13593 ft | 342 kts | 279° |
| 2026-04-19 10:14 | 42.35383 | 60.69073 | 13084 ft | 341 kts | 279° |
| 2026-04-19 10:14 | 42.35798 | 60.65925 | 12592 ft | 339 kts | 279° |
| 2026-04-19 10:15 | 42.36213 | 60.62786 | 12091 ft | 338 kts | 279° |
| 2026-04-19 10:15 | 42.36626 | 60.59664 | 11589 ft | 337 kts | 278° |
| 2026-04-19 10:15 | 42.37035 | 60.56550 | 11080 ft | 336 kts | 278° |
| 2026-04-19 10:15 | 42.37441 | 60.53444 | 10666 ft | 333 kts | 278° |
| 2026-04-19 10:16 | 42.37838 | 60.50420 | 10552 ft | 320 kts | 279° |
| 2026-04-19 10:16 | 42.38220 | 60.47514 | 10429 ft | 308 kts | 279° |
| 2026-04-19 10:16 | 42.38588 | 60.44703 | 10236 ft | 300 kts | 278° |
| 2026-04-19 10:16 | 42.38941 | 60.41976 | 10161 ft | 298 kts | 278° |
| 2026-04-19 10:17 | 42.39300 | 60.39185 | 10083 ft | 298 kts | 279° |
| 2026-04-19 10:17 | 42.39656 | 60.36427 | 9943 ft | 298 kts | 277° |
| 2026-04-19 10:17 | 42.40008 | 60.33674 | 9445 ft | 302 kts | 278° |
| 2026-04-19 10:17 | 42.40366 | 60.30895 | 9112 ft | 298 kts | 278° |
| 2026-04-19 10:18 | 42.40723 | 60.28128 | 8642 ft | 300 kts | 277° |
| 2026-04-19 10:18 | 42.40862 | 60.25356 | 8320 ft | 292 kts | 264° |
| 2026-04-19 10:18 | 42.40584 | 60.22634 | 7876 ft | 291 kts | 257° |
| 2026-04-19 10:19 | 42.39899 | 60.17289 | 7115 ft | 287 kts | 258° |
| 2026-04-19 10:19 | 42.39558 | 60.14637 | 6716 ft | 286 kts | 257° |
| 2026-04-19 10:19 | 42.39217 | 60.11993 | 6311 ft | 285 kts | 257° |
| 2026-04-19 10:19 | 42.38878 | 60.09362 | 5906 ft | 283 kts | 257° |
| 2026-04-19 10:20 | 42.38542 | 60.06758 | 5518 ft | 280 kts | 256° |
| 2026-04-19 10:20 | 42.38208 | 60.04177 | 5114 ft | 278 kts | 257° |
| 2026-04-19 10:20 | 42.37876 | 60.01612 | 4711 ft | 275 kts | 257° |
| 2026-04-19 10:20 | 42.37548 | 59.99069 | 4251 ft | 275 kts | 257° |
| 2026-04-19 10:21 | 42.37217 | 59.96506 | 3749 ft | 277 kts | 258° |
| 2026-04-19 10:21 | 42.36886 | 59.93951 | 3338 ft | 275 kts | 258° |
| 2026-04-19 10:21 | 42.36552 | 59.91394 | 2932 ft | 277 kts | 259° |
| 2026-04-19 10:21 | 42.36221 | 59.88841 | 2530 ft | 274 kts | 258° |
| 2026-04-19 10:22 | 42.35894 | 59.86314 | 2151 ft | 272 kts | 259° |
| 2026-04-19 10:22 | 42.35570 | 59.83819 | 1978 ft | 263 kts | 258° |
| 2026-04-19 10:22 | 42.35264 | 59.81463 | 1928 ft | 247 kts | 258° |
| 2026-04-19 10:22 | 42.34972 | 59.79228 | 1870 ft | 238 kts | 258° |
| 2026-04-19 10:23 | 42.34683 | 59.77031 | 1775 ft | 237 kts | 257° |
| 2026-04-19 10:23 | 42.34507 | 59.74833 | 1610 ft | 234 kts | 273° |
| 2026-04-19 10:23 | 42.34895 | 59.72736 | 1572 ft | 224 kts | 297° |
| 2026-04-19 10:23 | 42.35777 | 59.71059 | 1574 ft | 218 kts | 319° |
| 2026-04-19 10:24 | 42.36999 | 59.69921 | 1578 ft | 211 kts | 337° |
| 2026-04-19 10:24 | 42.38308 | 59.69086 | 1579 ft | 210 kts | 337° |
| 2026-04-19 10:24 | 42.39650 | 59.68227 | 1579 ft | 211 kts | 338° |
| 2026-04-19 10:24 | 42.40922 | 59.67410 | 1604 ft | 197 kts | 337° |
| 2026-04-19 10:25 | 42.42121 | 59.66640 | 1425 ft | 185 kts | 338° |
| 2026-04-19 10:25 | 42.43247 | 59.65918 | 1206 ft | 173 kts | 339° |
| 2026-04-19 10:25 | 42.44302 | 59.65240 | 1033 ft | 162 kts | 339° |
| 2026-04-19 10:25 | 42.45307 | 59.64589 | 813 ft | 159 kts | 339° |
| 2026-04-19 10:26 | 42.46280 | 59.63968 | 527 ft | 152 kts | 341° |
| 2026-04-19 10:26 | 42.47223 | 59.63369 | 367 ft | 149 kts | 338° |
| 2026-04-19 10:26 | 42.48142 | 59.62779 | 258 ft | 138 kts | 339° |
| 2026-04-19 10:26 | 42.48869 | 59.62312 | 255 ft | 91 kts | 335° |
| 2026-04-19 10:27 | 42.49284 | 59.62043 | 252 ft | 41 kts | 335° |
| 2026-04-19 10:27 | 42.49420 | 59.61955 | 254 ft | 13 kts | 331° |
| 2026-04-19 10:27 | 42.49459 | 59.61931 | 254 ft | 1 kts | 64° |
| 2026-04-19 10:27 | 42.49445 | 59.61946 | 254 ft | 5 kts | 148° |
| 2026-04-19 10:28 | 42.49408 | 59.61964 | 254 ft | 5 kts | 155° |
| 2026-04-19 10:28 | 42.49376 | 59.61985 | 253 ft | 5 kts | 154° |
| 2026-04-19 10:28 | 42.49346 | 59.62005 | 253 ft | 5 kts | 155° |
| 2026-04-19 10:28 | 42.49319 | 59.62021 | 252 ft | 4 kts | 155° |
| 2026-04-19 10:29 | 42.49293 | 59.62038 | 252 ft | 5 kts | 155° |
| 2026-04-19 10:29 | 42.49259 | 59.62060 | 253 ft | 6 kts | 154° |
| 2026-04-19 10:29 | 42.49220 | 59.62085 | 253 ft | 7 kts | 155° |
| 2026-04-19 10:29 | 42.49176 | 59.62112 | 254 ft | 8 kts | 154° |
| 2026-04-19 10:30 | 42.49118 | 59.62150 | 254 ft | 11 kts | 154° |
| 2026-04-19 10:30 | 42.49040 | 59.62200 | 254 ft | 14 kts | 155° |
| 2026-04-19 10:30 | 42.48954 | 59.62255 | 256 ft | 12 kts | 154° |
| 2026-04-19 10:30 | 42.48871 | 59.62308 | 255 ft | 14 kts | 154° |
| 2026-04-19 10:31 | 42.48772 | 59.62372 | 254 ft | 17 kts | 154° |
| 2026-04-19 10:31 | 42.48661 | 59.62444 | 253 ft | 19 kts | 154° |
| 2026-04-19 10:31 | 42.48548 | 59.62518 | 249 ft | 16 kts | 154° |
| 2026-04-19 10:31 | 42.48458 | 59.62575 | 253 ft | 11 kts | 155° |
| 2026-04-19 10:32 | 42.48394 | 59.62585 | 253 ft | 8 kts | 213° |
| 2026-04-19 10:32 | 42.48371 | 59.62527 | 254 ft | 6 kts | 254° |
| 2026-04-19 10:32 | 42.48362 | 59.62483 | 255 ft | 4 kts | 253° |
| 2026-04-19 10:32 | 42.48351 | 59.62434 | 255 ft | 7 kts | 252° |
| 2026-04-19 10:33 | 42.48331 | 59.62346 | 256 ft | 12 kts | 253° |
| 2026-04-19 10:33 | 42.48305 | 59.62228 | 255 ft | 13 kts | 253° |
| 2026-04-19 10:33 | 42.48283 | 59.62126 | 255 ft | 10 kts | 254° |
| 2026-04-19 10:33 | 42.48278 | 59.62034 | 255 ft | 10 kts | 302° |
| 2026-04-19 10:34 | 42.48339 | 59.61995 | 255 ft | 9 kts | 330° |
| 2026-04-19 10:34 | 42.48339 | 59.61914 | 255 ft | 6 kts | 252° |
| 2026-04-19 10:34 | 42.48313 | 59.61876 | 255 ft | 3 kts | 183° |
| 2026-04-19 10:34 | 42.48285 | 59.61882 | 255 ft | 4 kts | 163° |
| 2026-04-19 10:35 | 42.48272 | 59.61888 | 257 ft | 0 kts | 163° |